Time;durP1;ratioP1;P1;durP2;ratioP2;P2;SDS_P1;SDS_P2;PMS_P1;PMS_P2;Temp;Humidity;BMP_temperature;BMP_pressure;BME280_temperature;BME280_humidity;BME280_pressure;Samples;Min_cycle;Max_cycle;Signal;HPM_P1;HPM_P2
2022/01/19 00:01:03;;;;;;;9.70;8.70;;;;;;;;;;5031841;28;20409;-53
2022/01/19 00:03:29;;;;;;;11.70;9.07;;;;;;;;;;5032029;28;20435;-52
2022/01/19 00:05:56;;;;;;;11.70;8.97;;;;;;;;;;5032154;28;20475;-51
2022/01/19 00:08:22;;;;;;;16.57;9.10;;;;;;;;;;5031789;28;20400;-54
2022/01/19 00:10:49;;;;;;;10.23;8.73;;;;;;;;;;5031985;28;20417;-52
2022/01/19 00:13:16;;;;;;;9.80;8.63;;;;;;;;;;5031639;28;20415;-55
2022/01/19 00:15:42;;;;;;;12.53;8.93;;;;;;;;;;5031676;28;20921;-51
2022/01/19 00:18:08;;;;;;;10.77;9.00;;;;;;;;;;5031810;28;20405;-52
2022/01/19 00:20:35;;;;;;;10.73;9.00;;;;;;;;;;5031680;28;20427;-51
2022/01/19 00:23:02;;;;;;;11.00;8.50;;;;;;;;;;5035733;28;20575;-54
2022/01/19 00:25:28;;;;;;;12.23;9.10;;;;;;;;;;5036020;28;20541;-52
2022/01/19 00:27:54;;;;;;;9.57;7.57;;;;;;;;;;5035527;28;20423;-53
2022/01/19 00:30:20;;;;;;;9.87;8.30;;;;;;;;;;5034127;28;20909;-52
2022/01/19 00:32:46;;;;;;;10.70;8.37;;;;;;;;;;5035712;28;20503;-54
2022/01/19 00:35:13;;;;;;;10.27;8.90;;;;;;;;;;5035474;28;20423;-52
2022/01/19 00:37:40;;;;;;;9.33;8.40;;;;;;;;;;5035886;28;20419;-52
2022/01/19 00:40:07;;;;;;;12.43;8.43;;;;;;;;;;5034651;28;20438;-51
2022/01/19 00:42:33;;;;;;;10.00;8.50;;;;;;;;;;5035790;28;20781;-54
2022/01/19 00:44:59;;;;;;;10.07;7.97;;;;;;;;;;5035623;28;20491;-51
2022/01/19 00:47:25;;;;;;;9.90;7.93;;;;;;;;;;5035564;28;20422;-54
2022/01/19 00:49:51;;;;;;;9.40;7.80;;;;;;;;;;5035284;28;20769;-52
2022/01/19 00:52:17;;;;;;;9.87;8.40;;;;;;;;;;5035518;28;20448;-52
2022/01/19 00:54:43;;;;;;;8.93;8.03;;;;;;;;;;5035134;28;20967;-54
2022/01/19 00:57:09;;;;;;;12.67;8.43;;;;;;;;;;5034982;28;20466;-64
2022/01/19 00:59:35;;;;;;;10.40;7.70;;;;;;;;;;5033922;28;20408;-54
2022/01/19 01:02:02;;;;;;;9.20;7.73;;;;;;;;;;5035229;28;20805;-54
2022/01/19 01:04:28;;;;;;;10.80;8.00;;;;;;;;;;5035147;28;20873;-56
2022/01/19 01:06:54;;;;;;;10.00;8.07;;;;;;;;;;5034869;28;20472;-56
2022/01/19 01:09:21;;;;;;;9.07;8.07;;;;;;;;;;5034993;28;20436;-52
2022/01/19 01:11:57;;;;;;;12.93;8.57;;;;;;;;;;5034736;28;20416;-54
2022/01/19 01:20:01;;;;;;;8.67;7.63;;;;;;;;;;5026371;28;20420;-51
2022/01/19 01:22:27;;;;;;;8.90;7.43;;;;;;;;;;5036183;28;20975;-51
2022/01/19 01:24:53;;;;;;;8.33;7.50;;;;;;;;;;5034587;28;20424;-52
2022/01/19 01:27:19;;;;;;;14.57;7.60;;;;;;;;;;5034577;28;20417;-51
2022/01/19 01:29:45;;;;;;;11.63;8.50;;;;;;;;;;5033151;28;20417;-52
2022/01/19 01:32:11;;;;;;;12.47;8.70;;;;;;;;;;5034325;28;20412;-54
2022/01/19 01:34:37;;;;;;;11.67;8.20;;;;;;;;;;5034300;28;20432;-53
2022/01/19 01:37:03;;;;;;;12.70;8.40;;;;;;;;;;5034596;28;20874;-52
2022/01/19 01:39:29;;;;;;;13.50;8.67;;;;;;;;;;5034460;28;20413;-53
2022/01/19 01:41:55;;;;;;;11.50;8.60;;;;;;;;;;5034303;28;20770;-53
2022/01/19 01:44:21;;;;;;;12.43;8.40;;;;;;;;;;5034336;28;20428;-53
2022/01/19 01:46:52;;;;;;;11.20;8.13;;;;;;;;;;5034413;28;20472;-52
2022/01/19 01:49:28;;;;;;;9.03;8.03;;;;;;;;;;5033186;28;20427;-52
2022/01/19 01:54:42;;;;;;;9.83;8.27;;;;;;;;;;5034559;28;20424;-51
2022/01/19 01:57:08;;;;;;;11.60;7.87;;;;;;;;;;5034124;28;20413;-51
2022/01/19 01:59:35;;;;;;;10.77;8.50;;;;;;;;;;5034015;28;20938;-51
2022/01/19 02:02:01;;;;;;;12.20;9.17;;;;;;;;;;5034248;28;20436;-52
2022/01/19 02:04:29;;;;;;;12.00;8.43;;;;;;;;;;5033858;28;20420;-52
2022/01/19 02:07:30;;;;;;;14.63;7.93;;;;;;;;;;5032919;28;20521;-52
2022/01/19 02:09:56;;;;;;;11.60;8.80;;;;;;;;;;5033843;28;20408;-51
2022/01/19 02:23:25;;;;;;;10.80;8.67;;;;;;;;;;5033495;28;20563;-52
2022/01/19 02:25:57;;;;;;;11.50;8.00;;;;;;;;;;5033382;28;20448;-51
2022/01/19 02:36:52;;;;;;;9.97;7.50;;;;;;;;;;5033142;28;20459;-52
2022/01/19 02:42:05;;;;;;;10.60;7.90;;;;;;;;;;5033481;28;20412;-51
2022/01/19 02:46:37;;;;;;;10.07;7.60;;;;;;;;;;5031406;28;20424;-52
2022/01/19 02:49:54;;;;;;;8.60;7.40;;;;;;;;;;5033264;28;20432;-51
2022/01/19 02:52:21;;;;;;;10.00;6.93;;;;;;;;;;5033420;28;20773;-51
2022/01/19 02:54:48;;;;;;;11.00;7.50;;;;;;;;;;5033243;28;20413;-53
2022/01/19 02:57:15;;;;;;;10.27;7.30;;;;;;;;;;5033324;28;20488;-52
2022/01/19 03:10:35;;;;;;;13.97;7.93;;;;;;;;;;5032823;28;20932;-52
2022/01/19 03:13:01;;;;;;;8.93;7.93;;;;;;;;;;5032589;28;20408;-52
2022/01/19 03:15:28;;;;;;;12.77;7.73;;;;;;;;;;5032735;28;20413;-52
2022/01/19 03:17:58;;;;;;;12.40;7.80;;;;;;;;;;5032336;28;20408;-51
2022/01/19 03:20:24;;;;;;;11.63;7.63;;;;;;;;;;5032269;28;20409;-50
2022/01/19 03:23:01;;;;;;;11.83;8.17;;;;;;;;;;5032263;28;20492;-50
2022/01/19 03:25:29;;;;;;;10.10;7.83;;;;;;;;;;5032163;28;20548;-53
2022/01/19 03:27:55;;;;;;;9.60;6.80;;;;;;;;;;5032254;28;20407;-50
2022/01/19 03:30:22;;;;;;;9.60;7.57;;;;;;;;;;5032246;28;20774;-53
2022/01/19 03:32:48;;;;;;;12.20;8.10;;;;;;;;;;5030876;28;20837;-52
2022/01/19 03:35:15;;;;;;;9.73;7.80;;;;;;;;;;5032174;28;20448;-51
2022/01/19 03:37:41;;;;;;;12.97;8.17;;;;;;;;;;5032453;28;20412;-52
2022/01/19 03:40:10;;;;;;;12.17;8.43;;;;;;;;;;5032120;28;20413;-53
2022/01/19 03:42:36;;;;;;;10.90;8.53;;;;;;;;;;5031164;28;20432;-55
2022/01/19 03:45:02;;;;;;;12.00;8.37;;;;;;;;;;5032114;28;20416;-50
2022/01/19 03:47:32;;;;;;;13.63;8.43;;;;;;;;;;5032477;28;20542;-54
2022/01/19 03:49:58;;;;;;;11.00;8.53;;;;;;;;;;5032149;28;20444;-53
2022/01/19 03:52:24;;;;;;;10.07;8.30;;;;;;;;;;5032161;28;20462;-51
2022/01/19 03:54:50;;;;;;;9.40;8.20;;;;;;;;;;5030378;28;20417;-53
2022/01/19 03:57:16;;;;;;;11.90;8.97;;;;;;;;;;5031578;28;20427;-51
2022/01/19 03:59:42;;;;;;;11.57;8.70;;;;;;;;;;5032091;28;20413;-52
2022/01/19 04:02:08;;;;;;;14.40;9.23;;;;;;;;;;5032194;28;20420;-54
2022/01/19 04:04:56;;;;;;;10.53;8.83;;;;;;;;;;5031773;28;20450;-56
2022/01/19 04:07:22;;;;;;;11.33;8.80;;;;;;;;;;5031992;28;20416;-51
2022/01/19 04:09:48;;;;;;;9.60;8.60;;;;;;;;;;5031992;28;20404;-55
2022/01/19 04:12:19;;;;;;;14.60;8.10;;;;;;;;;;5031533;28;20419;-53
2022/01/19 04:14:45;;;;;;;9.23;8.33;;;;;;;;;;5032057;28;20498;-57
2022/01/19 04:17:12;;;;;;;13.50;7.90;;;;;;;;;;5031772;28;20503;-52
2022/01/19 04:22:08;;;;;;;8.50;7.60;;;;;;;;;;5031727;28;20452;-54
2022/01/19 04:24:34;;;;;;;9.57;7.80;;;;;;;;;;5031786;28;20467;-53
2022/01/19 04:29:51;;;;;;;10.10;8.33;;;;;;;;;;5032073;28;20432;-54
2022/01/19 04:32:22;;;;;;;9.33;8.00;;;;;;;;;;5031754;28;20789;-52
2022/01/19 04:34:49;;;;;;;10.67;8.37;;;;;;;;;;5031617;28;20451;-52
2022/01/19 05:01:53;;;;;;;12.97;9.03;;;;;;;;;;5031567;28;20458;-53
2022/01/19 05:06:49;;;;;;;12.30;9.60;;;;;;;;;;5031846;28;20483;-53
2022/01/19 05:14:44;;;;;;;12.13;9.80;;;;;;;;;;5035014;28;20403;-53
2022/01/19 05:17:10;;;;;;;12.87;9.60;;;;;;;;;;5035024;28;20404;-52
2022/01/19 05:19:36;;;;;;;13.27;9.53;;;;;;;;;;5033474;28;20436;-54
2022/01/19 05:22:02;;;;;;;12.63;10.10;;;;;;;;;;5033396;28;20475;-53
2022/01/19 05:24:28;;;;;;;13.83;10.10;;;;;;;;;;5034670;28;20875;-54
2022/01/19 05:26:54;;;;;;;15.03;10.40;;;;;;;;;;5034714;28;20471;-51
2022/01/19 05:29:20;;;;;;;12.17;9.97;;;;;;;;;;5034649;28;20802;-52
2022/01/19 05:31:46;;;;;;;16.90;11.27;;;;;;;;;;5033272;28;20439;-50
2022/01/19 05:34:12;;;;;;;16.37;11.20;;;;;;;;;;5033480;28;20401;-50
2022/01/19 05:36:38;;;;;;;16.03;11.47;;;;;;;;;;5034460;28;20412;-52
2022/01/19 05:39:05;;;;;;;18.27;12.23;;;;;;;;;;5034461;28;20424;-53
2022/01/19 05:41:31;;;;;;;17.70;12.07;;;;;;;;;;5034523;28;20878;-50
2022/01/19 05:43:57;;;;;;;18.90;13.20;;;;;;;;;;5034331;28;20439;-51
2022/01/19 05:46:24;;;;;;;16.47;11.80;;;;;;;;;;5034452;28;20503;-52
2022/01/19 05:48:50;;;;;;;18.97;12.20;;;;;;;;;;5034225;28;20888;-52
2022/01/19 05:51:16;;;;;;;16.47;11.60;;;;;;;;;;5034166;28;20478;-52
2022/01/19 05:53:42;;;;;;;19.50;13.23;;;;;;;;;;5034221;28;20412;-51
2022/01/19 05:56:08;;;;;;;18.60;13.57;;;;;;;;;;5034049;28;20909;-52
2022/01/19 05:58:34;;;;;;;19.47;13.70;;;;;;;;;;5034072;28;20409;-55
2022/01/19 06:01:00;;;;;;;19.47;13.53;;;;;;;;;;5034095;28;20420;-52
2022/01/19 06:03:26;;;;;;;20.60;13.50;;;;;;;;;;5034118;28;20868;-52
2022/01/19 06:05:52;;;;;;;20.30;14.80;;;;;;;;;;5032796;28;20475;-52
2022/01/19 06:08:28;;;;;;;22.37;14.80;;;;;;;;;;5033903;28;20413;-55
2022/01/19 06:10:55;;;;;;;20.60;13.57;;;;;;;;;;5032592;28;20885;-53
2022/01/19 06:13:22;;;;;;;25.40;14.50;;;;;;;;;;5033527;28;20764;-55
2022/01/19 06:15:48;;;;;;;24.23;15.63;;;;;;;;;;5032528;28;20420;-52
2022/01/19 06:18:15;;;;;;;21.93;14.20;;;;;;;;;;5033467;28;20466;-55
2022/01/19 06:20:41;;;;;;;25.73;14.73;;;;;;;;;;5033823;28;20400;-57
2022/01/19 06:23:07;;;;;;;23.47;15.17;;;;;;;;;;5033691;28;20468;-55
2022/01/19 06:25:33;;;;;;;24.60;15.90;;;;;;;;;;5033730;28;20535;-52
2022/01/19 06:27:59;;;;;;;22.00;14.80;;;;;;;;;;5033817;28;20412;-57
2022/01/19 06:30:26;;;;;;;20.57;12.83;;;;;;;;;;5033712;28;20550;-59
2022/01/19 06:32:53;;;;;;;22.47;15.40;;;;;;;;;;5033554;28;20420;-56
2022/01/19 06:35:19;;;;;;;22.83;15.07;;;;;;;;;;5033540;28;20904;-53
2022/01/19 06:37:45;;;;;;;25.83;15.73;;;;;;;;;;5033145;28;20435;-53
2022/01/19 06:40:12;;;;;;;23.10;15.30;;;;;;;;;;5033603;28;20417;-52
2022/01/19 06:42:38;;;;;;;25.53;15.23;;;;;;;;;;5031843;28;20503;-51
2022/01/19 06:45:05;;;;;;;23.80;15.67;;;;;;;;;;5033012;28;20420;-52
2022/01/19 06:47:31;;;;;;;25.70;15.80;;;;;;;;;;5033409;28;20427;-53
2022/01/19 06:49:57;;;;;;;24.90;15.37;;;;;;;;;;5033248;28;20471;-51
2022/01/19 06:52:23;;;;;;;22.97;14.63;;;;;;;;;;5033332;28;20712;-52
2022/01/19 06:54:49;;;;;;;25.67;15.57;;;;;;;;;;5032871;28;20412;-52
2022/01/19 06:57:15;;;;;;;35.23;15.73;;;;;;;;;;5033202;28;20401;-52
2022/01/19 06:59:42;;;;;;;27.87;16.27;;;;;;;;;;5032875;28;20423;-52
2022/01/19 07:02:08;;;;;;;25.07;14.40;;;;;;;;;;5032958;28;20401;-51
2022/01/19 07:04:34;;;;;;;29.90;15.90;;;;;;;;;;5032745;28;20450;-54
2022/01/19 07:07:00;;;;;;;30.50;16.87;;;;;;;;;;5032753;28;20468;-54
2022/01/19 07:09:26;;;;;;;29.70;17.63;;;;;;;;;;5032698;28;20486;-53
2022/01/19 07:11:52;;;;;;;27.27;16.27;;;;;;;;;;5032777;28;20412;-54
2022/01/19 07:14:18;;;;;;;26.57;16.20;;;;;;;;;;5033040;28;20762;-54
2022/01/19 07:16:44;;;;;;;28.63;16.90;;;;;;;;;;5032689;28;20415;-51
2022/01/19 07:19:12;;;;;;;26.03;15.70;;;;;;;;;;5032553;28;20415;-56
2022/01/19 07:21:38;;;;;;;32.37;16.90;;;;;;;;;;5031161;28;20472;-53
2022/01/19 07:24:04;;;;;;;27.83;16.40;;;;;;;;;;5031474;28;20910;-54
2022/01/19 07:26:30;;;;;;;30.03;17.60;;;;;;;;;;5032761;28;20628;-53
2022/01/19 07:28:56;;;;;;;31.90;18.97;;;;;;;;;;5031154;28;20452;-57
2022/01/19 07:31:22;;;;;;;31.73;17.43;;;;;;;;;;5032272;28;20416;-54
2022/01/19 07:33:48;;;;;;;31.13;17.10;;;;;;;;;;5032413;28;20410;-54
2022/01/19 07:36:15;;;;;;;39.90;16.97;;;;;;;;;;5032408;28;20789;-56
2022/01/19 07:38:41;;;;;;;25.07;14.80;;;;;;;;;;5032349;28;20420;-57
2022/01/19 07:41:09;;;;;;;23.33;14.93;;;;;;;;;;5032046;28;20408;-54
2022/01/19 07:43:37;;;;;;;24.63;14.40;;;;;;;;;;5031921;28;20401;-53
2022/01/19 07:46:03;;;;;;;23.10;14.43;;;;;;;;;;5030509;28;20476;-58
2022/01/19 07:48:29;;;;;;;24.83;14.80;;;;;;;;;;5032338;28;20471;-53
2022/01/19 07:50:55;;;;;;;22.30;13.87;;;;;;;;;;5032164;28;20416;-53
2022/01/19 07:53:21;;;;;;;25.97;15.00;;;;;;;;;;5031842;28;20400;-55
2022/01/19 07:55:49;;;;;;;27.27;15.30;;;;;;;;;;5032049;28;20435;-56
2022/01/19 07:58:15;;;;;;;21.97;14.73;;;;;;;;;;5032160;28;20409;-56
2022/01/19 08:00:42;;;;;;;19.30;12.37;;;;;;;;;;5032200;28;20400;-56
2022/01/19 08:03:08;;;;;;;19.47;12.67;;;;;;;;;;5030548;28;20773;-58
2022/01/19 08:05:34;;;;;;;17.23;12.27;;;;;;;;;;5031739;28;20463;-53
2022/01/19 08:08:02;;;;;;;16.57;10.83;;;;;;;;;;5032051;28;20423;-56
2022/01/19 08:10:29;;;;;;;19.20;12.47;;;;;;;;;;5032270;28;20409;-59
2022/01/19 08:12:55;;;;;;;17.30;12.80;;;;;;;;;;5032081;28;20759;-54
2022/01/19 08:15:21;;;;;;;23.10;13.60;;;;;;;;;;5030443;28;20853;-56
2022/01/19 08:17:47;;;;;;;17.43;12.03;;;;;;;;;;5031886;28;20452;-55
2022/01/19 08:20:13;;;;;;;17.60;12.43;;;;;;;;;;5031832;28;20462;-56
2022/01/19 08:22:39;;;;;;;15.80;12.40;;;;;;;;;;5031640;28;20464;-55
2022/01/19 08:25:05;;;;;;;19.00;12.37;;;;;;;;;;5031737;28;20415;-55
2022/01/19 08:27:31;;;;;;;15.33;11.93;;;;;;;;;;5031978;28;20842;-60
2022/01/19 08:29:57;;;;;;;16.90;11.50;;;;;;;;;;5030087;28;20428;-55
2022/01/19 08:32:24;;;;;;;15.37;12.37;;;;;;;;;;5029351;28;20412;-55
2022/01/19 08:34:50;;;;;;;15.37;11.43;;;;;;;;;;5028753;28;20412;-55
2022/01/19 08:37:16;;;;;;;15.27;11.63;;;;;;;;;;5029252;28;20416;-55
2022/01/19 08:39:43;;;;;;;11.10;9.17;;;;;;;;;;5029401;28;20928;-54
2022/01/19 08:42:09;;;;;;;19.43;12.10;;;;;;;;;;5030136;28;20412;-55
2022/01/19 08:44:35;;;;;;;15.13;11.03;;;;;;;;;;5033158;28;20499;-56
2022/01/19 08:47:01;;;;;;;14.33;11.07;;;;;;;;;;5033496;28;20555;-55
2022/01/19 08:49:27;;;;;;;13.13;10.10;;;;;;;;;;5033978;28;20423;-57
2022/01/19 08:51:54;;;;;;;14.47;11.20;;;;;;;;;;5032479;28;20420;-57
2022/01/19 08:54:20;;;;;;;13.57;10.73;;;;;;;;;;5033740;28;20466;-56
2022/01/19 08:56:46;;;;;;;12.00;9.60;;;;;;;;;;5033503;28;20439;-57
2022/01/19 08:59:12;;;;;;;11.83;10.20;;;;;;;;;;5033525;28;20417;-57
2022/01/19 09:01:38;;;;;;;9.10;8.20;;;;;;;;;;5033770;28;20507;-54
2022/01/19 09:04:04;;;;;;;12.30;10.10;;;;;;;;;;5033658;28;20447;-52
2022/01/19 09:06:30;;;;;;;11.30;9.00;;;;;;;;;;5033576;28;20994;-52
2022/01/19 09:08:56;;;;;;;11.30;9.57;;;;;;;;;;5033421;28;20901;-53
2022/01/19 09:11:25;;;;;;;11.97;10.43;;;;;;;;;;5033487;28;20416;-53
2022/01/19 09:13:51;;;;;;;11.97;9.67;;;;;;;;;;5033378;28;20420;-54
2022/01/19 09:16:17;;;;;;;11.07;8.70;;;;;;;;;;5033250;28;20921;-51
2022/01/19 09:18:43;;;;;;;10.60;9.10;;;;;;;;;;5033260;28;20417;-50
2022/01/19 09:21:09;;;;;;;12.33;9.77;;;;;;;;;;5033203;28;20424;-52
2022/01/19 09:23:37;;;;;;;10.70;9.60;;;;;;;;;;5033359;28;20865;-54
2022/01/19 09:26:03;;;;;;;11.60;8.83;;;;;;;;;;5033014;28;20884;-51
2022/01/19 09:28:30;;;;;;;12.67;10.53;;;;;;;;;;5033418;28;20477;-52
2022/01/19 09:31:01;;;;;;;12.47;9.80;;;;;;;;;;5033211;28;20420;-51
2022/01/19 09:33:30;;;;;;;12.47;9.60;;;;;;;;;;5031840;28;20400;-55
2022/01/19 09:38:31;;;;;;;12.10;10.10;;;;;;;;;;5033081;28;20435;-56
2022/01/19 09:40:57;;;;;;;12.10;10.30;;;;;;;;;;5032607;28;20440;-55
2022/01/19 09:43:24;;;;;;;13.97;10.17;;;;;;;;;;5032862;28;20412;-54
2022/01/19 09:45:50;;;;;;;12.27;10.10;;;;;;;;;;5032811;28;20448;-53
2022/01/19 09:48:17;;;;;;;11.73;10.00;;;;;;;;;;5032596;28;20417;-53
2022/01/19 09:50:43;;;;;;;10.33;9.27;;;;;;;;;;5032439;28;20424;-52
2022/01/19 09:53:09;;;;;;;11.00;8.60;;;;;;;;;;5032556;28;20423;-51
2022/01/19 09:55:38;;;;;;;11.97;9.10;;;;;;;;;;5033046;28;20419;-52
2022/01/19 09:58:04;;;;;;;11.00;9.40;;;;;;;;;;5032684;28;20466;-51
2022/01/19 10:00:30;;;;;;;10.30;9.20;;;;;;;;;;5033047;28;20405;-52
2022/01/19 10:03:12;;;;;;;10.60;8.97;;;;;;;;;;5034403;28;20413;-60
2022/01/19 10:06:05;;;;;;;10.70;9.13;;;;;;;;;;5033403;28;20456;-63
2022/01/19 10:08:36;;;;;;;11.07;9.40;;;;;;;;;;5026554;28;21080;-60
2022/01/19 10:11:18;;;;;;;8.57;7.70;;;;;;;;;;5033983;28;20408;-52
2022/01/19 10:17:02;;;;;;;13.90;9.20;;;;;;;;;;5033749;28;20400;-53
2022/01/19 10:19:35;;;;;;;13.10;8.20;;;;;;;;;;5033880;28;20844;-55
2022/01/19 10:22:04;;;;;;;9.53;8.53;;;;;;;;;;5033780;28;20544;-54
2022/01/19 10:24:33;;;;;;;10.20;8.80;;;;;;;;;;5033769;28;20422;-54
2022/01/19 10:27:18;;;;;;;9.30;8.40;;;;;;;;;;5033582;28;20468;-53
2022/01/19 10:29:44;;;;;;;9.47;8.33;;;;;;;;;;5033471;28;20408;-54
2022/01/19 10:32:10;;;;;;;8.63;7.80;;;;;;;;;;5033584;28;20551;-53
2022/01/19 10:34:36;;;;;;;10.17;9.03;;;;;;;;;;5033369;28;20470;-56
2022/01/19 10:37:05;;;;;;;10.10;8.87;;;;;;;;;;5033409;28;20413;-55
2022/01/19 10:39:40;;;;;;;9.43;8.53;;;;;;;;;;5013669;28;20823;-53
2022/01/19 10:42:08;;;;;;;9.20;8.30;;;;;;;;;;5017772;28;20416;-54
2022/01/19 10:44:38;;;;;;;10.97;8.80;;;;;;;;;;5033117;28;20407;-53
2022/01/19 10:47:05;;;;;;;9.50;8.20;;;;;;;;;;5032973;28;20984;-55
2022/01/19 10:49:50;;;;;;;8.93;8.03;;;;;;;;;;5033398;28;20409;-52
2022/01/19 10:52:32;;;;;;;9.53;8.63;;;;;;;;;;5033176;28;20413;-55
2022/01/19 10:54:59;;;;;;;9.50;8.50;;;;;;;;;;5031988;28;20494;-53
2022/01/19 10:57:26;;;;;;;11.00;8.90;;;;;;;;;;5031710;28;20416;-53
2022/01/19 10:59:53;;;;;;;9.53;8.60;;;;;;;;;;5032839;28;20417;-55
2022/01/19 11:02:20;;;;;;;9.13;8.30;;;;;;;;;;5032976;28;20404;-53
2022/01/19 11:04:46;;;;;;;8.17;7.47;;;;;;;;;;5032432;28;20903;-55
2022/01/19 11:07:15;;;;;;;8.93;8.03;;;;;;;;;;5033135;28;20483;-55
2022/01/19 11:12:53;;;;;;;8.40;7.70;;;;;;;;;;4990845;28;20438;-55
2022/01/19 11:15:19;;;;;;;8.47;7.77;;;;;;;;;;4991068;28;20579;-52
2022/01/19 11:17:46;;;;;;;8.40;7.63;;;;;;;;;;5012476;28;20413;-55
2022/01/19 11:20:14;;;;;;;9.37;8.40;;;;;;;;;;5032596;28;20475;-51
2022/01/19 11:22:49;;;;;;;9.10;8.17;;;;;;;;;;5032225;28;20548;-52
2022/01/19 11:25:22;;;;;;;8.70;7.90;;;;;;;;;;5032348;28;20427;-53
2022/01/19 11:27:49;;;;;;;13.83;8.50;;;;;;;;;;5032725;28;20428;-52
2022/01/19 11:30:21;;;;;;;12.13;9.33;;;;;;;;;;5032464;28;20491;-51
2022/01/19 11:33:07;;;;;;;9.60;8.60;;;;;;;;;;5031793;28;20977;-53
2022/01/19 11:35:34;;;;;;;10.70;9.60;;;;;;;;;;5024998;28;20427;-53
2022/01/19 11:38:01;;;;;;;11.50;10.27;;;;;;;;;;5032232;28;20416;-55
2022/01/19 11:40:35;;;;;;;11.13;9.10;;;;;;;;;;5032159;28;20412;-57
2022/01/19 11:43:17;;;;;;;9.87;8.83;;;;;;;;;;5032358;28;20466;-57
2022/01/19 11:45:43;;;;;;;10.53;9.20;;;;;;;;;;5047352;28;20949;-54
2022/01/19 11:48:12;;;;;;;10.33;9.10;;;;;;;;;;5032017;28;20420;-53
2022/01/19 11:50:38;;;;;;;9.47;8.47;;;;;;;;;;5047201;28;20515;-54
2022/01/19 11:53:09;;;;;;;8.00;6.80;;;;;;;;;;5047385;28;20866;-56
2022/01/19 11:55:36;;;;;;;9.97;8.50;;;;;;;;;;5031830;28;20742;-54
2022/01/19 11:58:21;;;;;;;8.70;7.90;;;;;;;;;;5032034;28;20419;-54
2022/01/19 12:00:48;;;;;;;9.90;8.90;;;;;;;;;;5047047;28;20794;-57
2022/01/19 12:03:21;;;;;;;9.53;8.20;;;;;;;;;;5032124;28;20817;-55
2022/01/19 12:05:50;;;;;;;12.07;8.60;;;;;;;;;;5032132;28;20483;-54
2022/01/19 12:08:22;;;;;;;10.03;8.50;;;;;;;;;;5031775;28;20914;-57
2022/01/19 12:10:49;;;;;;;10.30;9.20;;;;;;;;;;5031816;28;20469;-54
2022/01/19 12:13:36;;;;;;;10.20;8.00;;;;;;;;;;5037577;28;20404;-54
2022/01/19 12:16:14;;;;;;;7.97;7.27;;;;;;;;;;5047278;28;20470;-56
2022/01/19 12:18:42;;;;;;;7.90;7.20;;;;;;;;;;5035578;28;20419;-54
2022/01/19 12:21:10;;;;;;;8.33;7.10;;;;;;;;;;5035778;28;20455;-54
2022/01/19 12:23:37;;;;;;;7.53;6.93;;;;;;;;;;5035695;28;20520;-51
2022/01/19 12:26:06;;;;;;;7.40;6.90;;;;;;;;;;5035571;28;20547;-56
2022/01/19 12:28:38;;;;;;;7.03;6.43;;;;;;;;;;5035794;28;20463;-54
2022/01/19 12:31:23;;;;;;;7.10;6.50;;;;;;;;;;5035505;28;20488;-53
2022/01/19 12:34:10;;;;;;;7.43;6.70;;;;;;;;;;5035475;28;20893;-52
2022/01/19 12:36:45;;;;;;;7.00;6.40;;;;;;;;;;5035491;28;20416;-52
2022/01/19 12:39:26;;;;;;;7.37;6.77;;;;;;;;;;5035339;28;20414;-52
2022/01/19 12:41:55;;;;;;;6.70;6.10;;;;;;;;;;5035306;28;20451;-52
2022/01/19 12:44:36;;;;;;;7.67;6.97;;;;;;;;;;5035395;28;20404;-52
2022/01/19 12:47:03;;;;;;;10.57;6.03;;;;;;;;;;5035167;28;20833;-56
2022/01/19 12:49:30;;;;;;;7.13;6.03;;;;;;;;;;5035423;28;20495;-54
2022/01/19 12:51:56;;;;;;;6.50;6.10;;;;;;;;;;5035325;28;20931;-54
2022/01/19 12:54:30;;;;;;;9.63;6.87;;;;;;;;;;5033839;28;20408;-52
2022/01/19 12:56:58;;;;;;;7.67;7.00;;;;;;;;;;5034137;28;20886;-52
2022/01/19 12:59:24;;;;;;;7.03;6.43;;;;;;;;;;5034857;28;20507;-54
2022/01/19 13:01:50;;;;;;;8.53;6.37;;;;;;;;;;5033931;28;20423;-52
2022/01/19 13:04:25;;;;;;;7.90;6.73;;;;;;;;;;5034686;28;20462;-53
2022/01/19 13:06:54;;;;;;;6.93;6.43;;;;;;;;;;5034540;28;20817;-55
2022/01/19 13:09:29;;;;;;;6.40;5.90;;;;;;;;;;5035265;28;20427;-52
2022/01/19 13:11:56;;;;;;;6.73;6.23;;;;;;;;;;5034844;28;20446;-52
2022/01/19 13:14:24;;;;;;;7.40;6.70;;;;;;;;;;5034782;28;20408;-52
2022/01/19 13:16:52;;;;;;;6.93;6.33;;;;;;;;;;5035049;28;20421;-52
2022/01/19 13:19:24;;;;;;;6.80;6.20;;;;;;;;;;5034957;28;20420;-52
2022/01/19 13:21:52;;;;;;;7.50;6.57;;;;;;;;;;5034549;28;20936;-52
2022/01/19 13:24:24;;;;;;;8.30;6.10;;;;;;;;;;5034299;28;20412;-51
2022/01/19 13:26:53;;;;;;;7.43;6.73;;;;;;;;;;5033301;28;20475;-53
2022/01/19 13:29:31;;;;;;;13.13;7.50;;;;;;;;;;5033543;28;20416;-53
2022/01/19 13:32:02;;;;;;;8.40;6.93;;;;;;;;;;5034790;28;20415;-57
2022/01/19 13:34:30;;;;;;;7.07;6.47;;;;;;;;;;5034622;28;20781;-50
2022/01/19 13:36:59;;;;;;;9.50;7.00;;;;;;;;;;5049742;28;20425;-54
2022/01/19 13:39:25;;;;;;;7.70;7.00;;;;;;;;;;5034615;28;20431;-52
2022/01/19 13:41:53;;;;;;;7.50;6.80;;;;;;;;;;5034218;28;20408;-53
2022/01/19 13:44:23;;;;;;;11.10;7.17;;;;;;;;;;5034222;28;20448;-53
2022/01/19 13:46:49;;;;;;;6.90;6.40;;;;;;;;;;5033886;28;20594;-53
2022/01/19 13:49:15;;;;;;;7.57;6.40;;;;;;;;;;5034568;28;20496;-54
2022/01/19 13:51:42;;;;;;;8.17;6.60;;;;;;;;;;5034556;28;20515;-54
2022/01/19 13:54:08;;;;;;;10.93;7.50;;;;;;;;;;5034169;28;20967;-53
2022/01/19 13:56:36;;;;;;;7.77;6.93;;;;;;;;;;5033793;28;20470;-52
2022/01/19 13:59:14;;;;;;;7.53;6.90;;;;;;;;;;5034264;28;20411;-54
2022/01/19 14:01:40;;;;;;;9.70;7.10;;;;;;;;;;5034071;28;20458;-54
2022/01/19 14:04:08;;;;;;;7.37;6.70;;;;;;;;;;5033826;28;20409;-55
2022/01/19 14:06:39;;;;;;;10.10;7.07;;;;;;;;;;5033577;28;20472;-53
2022/01/19 14:09:34;;;;;;;7.10;6.47;;;;;;;;;;5034021;28;20415;-52
2022/01/19 14:12:16;;;;;;;7.90;7.10;;;;;;;;;;5032653;28;20822;-54
2022/01/19 14:14:48;;;;;;;8.53;7.43;;;;;;;;;;5033818;28;20845;-52
2022/01/19 14:17:29;;;;;;;7.63;7.03;;;;;;;;;;5033697;28;20458;-56
2022/01/19 14:19:56;;;;;;;7.87;7.07;;;;;;;;;;5031939;28;20420;-53
2022/01/19 14:22:22;;;;;;;8.70;7.00;;;;;;;;;;5033359;28;20472;-54
2022/01/19 14:25:01;;;;;;;7.80;6.93;;;;;;;;;;5033816;28;20451;-54
2022/01/19 14:27:28;;;;;;;7.53;6.83;;;;;;;;;;5033705;28;20471;-51
2022/01/19 14:29:58;;;;;;;7.60;6.90;;;;;;;;;;5033499;28;20413;-52
2022/01/19 14:32:37;;;;;;;7.97;7.20;;;;;;;;;;5033491;28;20448;-56
2022/01/19 14:35:18;;;;;;;10.20;8.10;;;;;;;;;;5033603;28;20408;-53
2022/01/19 14:38:14;;;;;;;8.23;7.40;;;;;;;;;;5033125;28;20436;-53
2022/01/19 14:40:58;;;;;;;8.80;7.40;;;;;;;;;;5023484;28;20580;-50
2022/01/19 14:43:26;;;;;;;9.30;6.83;;;;;;;;;;5032904;28;20428;-54
2022/01/19 14:46:00;;;;;;;8.27;7.07;;;;;;;;;;5033008;28;20460;-54
2022/01/19 14:48:26;;;;;;;7.83;7.13;;;;;;;;;;5033234;28;20425;-52
2022/01/19 14:50:53;;;;;;;7.57;6.87;;;;;;;;;;5031979;28;20552;-54
2022/01/19 14:53:20;;;;;;;8.03;7.27;;;;;;;;;;5032859;28;20804;-54
2022/01/19 14:55:47;;;;;;;10.40;7.47;;;;;;;;;;5033035;28;20405;-52
2022/01/19 14:58:13;;;;;;;9.60;6.77;;;;;;;;;;5033368;28;20474;-54
2022/01/19 15:00:41;;;;;;;9.80;7.60;;;;;;;;;;5033266;28;20400;-61
2022/01/19 15:03:07;;;;;;;11.10;7.23;;;;;;;;;;5033157;28;20439;-52
2022/01/19 15:05:34;;;;;;;11.83;7.20;;;;;;;;;;5031771;28;20405;-52
2022/01/19 15:08:01;;;;;;;8.40;6.90;;;;;;;;;;5032996;28;20416;-53
2022/01/19 15:10:28;;;;;;;8.57;6.70;;;;;;;;;;5031720;28;20420;-53
2022/01/19 15:12:54;;;;;;;12.10;7.57;;;;;;;;;;5031428;28;20475;-52
2022/01/19 15:15:23;;;;;;;8.10;7.30;;;;;;;;;;5032558;28;20987;-55
2022/01/19 15:17:50;;;;;;;9.10;7.70;;;;;;;;;;5031415;28;20429;-54
2022/01/19 15:20:16;;;;;;;9.30;7.07;;;;;;;;;;5032770;28;20903;-54
2022/01/19 15:22:44;;;;;;;8.70;7.80;;;;;;;;;;5031178;28;20993;-53
2022/01/19 15:25:10;;;;;;;13.43;7.73;;;;;;;;;;5032720;28;20416;-54
2022/01/19 15:27:36;;;;;;;8.00;7.30;;;;;;;;;;5032445;28;20530;-53
2022/01/19 15:30:04;;;;;;;10.00;7.50;;;;;;;;;;5032670;28;20498;-53
2022/01/19 15:32:30;;;;;;;9.80;7.80;;;;;;;;;;5031374;28;20444;-54
2022/01/19 15:34:57;;;;;;;9.40;7.70;;;;;;;;;;5032295;28;20453;-56
2022/01/19 15:37:25;;;;;;;11.83;7.33;;;;;;;;;;5031092;28;20409;-53
2022/01/19 15:39:54;;;;;;;8.13;7.37;;;;;;;;;;5032370;28;20420;-53
2022/01/19 15:42:20;;;;;;;9.47;8.10;;;;;;;;;;5031987;28;20406;-52
2022/01/19 15:44:46;;;;;;;9.87;8.87;;;;;;;;;;5032393;28;20455;-53
2022/01/19 15:47:14;;;;;;;10.80;8.07;;;;;;;;;;5030658;28;20539;-54
2022/01/19 15:49:40;;;;;;;8.00;7.20;;;;;;;;;;5032343;28;20465;-54
2022/01/19 15:52:06;;;;;;;9.97;8.10;;;;;;;;;;5031966;28;21055;-55
2022/01/19 15:54:33;;;;;;;8.03;7.33;;;;;;;;;;5032077;28;20495;-55
2022/01/19 15:57:00;;;;;;;7.73;6.97;;;;;;;;;;5032102;28;20512;-53
2022/01/19 15:59:26;;;;;;;9.73;7.80;;;;;;;;;;5031836;28;20462;-57
2022/01/19 16:01:52;;;;;;;9.30;7.40;;;;;;;;;;5031497;28;20846;-51
2022/01/19 16:04:18;;;;;;;11.77;7.80;;;;;;;;;;5031837;28;20407;-52
2022/01/19 16:06:44;;;;;;;10.00;8.00;;;;;;;;;;5031852;28;20478;-53
2022/01/19 16:09:11;;;;;;;10.10;7.73;;;;;;;;;;5030688;28;20424;-54